College Park, MD

11:58 AM EST on December 28, 2014 (GMT -0500)
Andrews Air Force Base-Naf | Change Station
CLOSE
Current Station
Airport
Location: Andrews AFB,
Elevation: 282 ft
Nearby Weather Stations

Elev 282 ft 38.81 °N, 76.87 °W | Updated 1 hour ago

Mostly Cloudy
Mostly Cloudy
54 °F
Feels Like 54 °F
N
7
Wind Variable Wind from SW

Today
High -- | Low -- °F
--% Chance of Precip.
Yesterday
High -- | Low -- °F
Precip. -- in
7:25 AM 4:52 PM
Waxing Crescent, 49% visible
Pressure 29.99 in
Visibility 10.0 miles
Clouds Few 11000 ft
Dew Point 40 °F
Humidity 59%
Rainfall 0.00 in
Snow Depth Not available.
UV 2 out of 12
Pollen .10 out of 12
Air Quality Not available.
Flu Activity Not available.
METAR KADW 281558Z AUTO 22006KT 10SM FEW110 13/05 A2997 RMK AO2 SLP156 T01250046 $

More Conditions Fewer Conditions

Pressure 29.99 in
Visibility 10.0 miles
Clouds Few 11000 ft
Dew Point 40 °F
Humidity 59%
Rainfall 0.00 in
Snow Depth Not available.
UV 2 out of 12
Pollen .10 out of 12
Air Quality Not available.
Flu Activity Not available.
METAR KADW 281558Z AUTO 22006KT 10SM FEW110 13/05 A2997 RMK AO2 SLP156 T01250046 $

More Conditions Fewer Conditions

10-Day Weather Forecast

Almanac

Astronomy

Dec. 28, 2014 Rise Set
Actual Time
Civil Twilight
Nautical Twilight
Astronomical Twilight
Moon
Length of Visible Light
Length of Day
Tomorrow will be .
, % of the Moon is Illuminated

Today's Extremes

State Highs State Lows

Community

WunderPhotos

Upload Photos

1,781,344 photos uploaded!

WunderBlogs® & News

Nearby

Air Quality

  Air Quality AQ Index Pollutant
Not available.

Snow Depth

Station Depth Elevation

Earthquake Activity

City Distance Mag. Time & Date
Minimum magnitude displayed is 2.5.

Coastal Water Temperatures

Place Temperature

Nearby Weather Stations